sensor_id;sensor_type;location;lat;lon;timestamp;P1;durP1;ratioP1;P2;durP2;ratioP2
20004;SDS011;69160;45.498;-73.582;2023-05-10T00:01:28;3.40;;;1.40;;
20004;SDS011;69160;45.498;-73.582;2023-05-10T00:03:54;4.60;;;1.30;;
20004;SDS011;69160;45.498;-73.582;2023-05-10T00:06:20;2.53;;;1.53;;
20004;SDS011;69160;45.498;-73.582;2023-05-10T00:08:46;1.50;;;1.03;;
20004;SDS011;69160;45.498;-73.582;2023-05-10T00:11:12;2.97;;;1.63;;
20004;SDS011;69160;45.498;-73.582;2023-05-10T00:13:38;14.03;;;2.03;;
20004;SDS011;69160;45.498;-73.582;2023-05-10T00:16:05;2.10;;;1.53;;
20004;SDS011;69160;45.498;-73.582;2023-05-10T00:18:31;4.90;;;1.50;;
20004;SDS011;69160;45.498;-73.582;2023-05-10T00:20:57;3.10;;;1.40;;
20004;SDS011;69160;45.498;-73.582;2023-05-10T00:23:23;1.70;;;1.07;;
20004;SDS011;69160;45.498;-73.582;2023-05-10T00:25:49;3.17;;;1.70;;
20004;SDS011;69160;45.498;-73.582;2023-05-10T00:28:16;3.27;;;1.47;;
20004;SDS011;69160;45.498;-73.582;2023-05-10T00:30:42;4.20;;;1.40;;
20004;SDS011;69160;45.498;-73.582;2023-05-10T00:33:08;3.83;;;1.33;;
20004;SDS011;69160;45.498;-73.582;2023-05-10T00:35:34;5.30;;;1.90;;
20004;SDS011;69160;45.498;-73.582;2023-05-10T00:38:01;5.20;;;1.27;;
20004;SDS011;69160;45.498;-73.582;2023-05-10T00:40:27;3.00;;;1.97;;
20004;SDS011;69160;45.498;-73.582;2023-05-10T00:42:53;3.03;;;1.40;;
20004;SDS011;69160;45.498;-73.582;2023-05-10T00:45:20;2.63;;;1.10;;
20004;SDS011;69160;45.498;-73.582;2023-05-10T00:47:46;10.17;;;1.60;;
20004;SDS011;69160;45.498;-73.582;2023-05-10T00:50:12;3.70;;;1.60;;
20004;SDS011;69160;45.498;-73.582;2023-05-10T00:52:40;11.53;;;1.60;;
20004;SDS011;69160;45.498;-73.582;2023-05-10T00:55:07;4.13;;;1.43;;
20004;SDS011;69160;45.498;-73.582;2023-05-10T00:57:37;5.00;;;1.40;;
20004;SDS011;69160;45.498;-73.582;2023-05-10T01:00:03;1.80;;;1.00;;
20004;SDS011;69160;45.498;-73.582;2023-05-10T01:02:30;8.97;;;1.83;;
20004;SDS011;69160;45.498;-73.582;2023-05-10T01:04:56;5.97;;;1.50;;
20004;SDS011;69160;45.498;-73.582;2023-05-10T01:07:23;6.70;;;1.37;;
20004;SDS011;69160;45.498;-73.582;2023-05-10T01:09:49;6.03;;;1.50;;
20004;SDS011;69160;45.498;-73.582;2023-05-10T01:12:15;3.23;;;1.40;;
20004;SDS011;69160;45.498;-73.582;2023-05-10T01:14:41;7.03;;;1.53;;
20004;SDS011;69160;45.498;-73.582;2023-05-10T01:17:07;10.73;;;1.73;;
20004;SDS011;69160;45.498;-73.582;2023-05-10T01:19:36;2.70;;;1.40;;
20004;SDS011;69160;45.498;-73.582;2023-05-10T01:36:42;2.77;;;1.63;;
20004;SDS011;69160;45.498;-73.582;2023-05-10T01:42:11;4.77;;;1.80;;
20004;SDS011;69160;45.498;-73.582;2023-05-10T01:44:44;6.73;;;1.60;;
20004;SDS011;69160;45.498;-73.582;2023-05-10T01:47:54;9.37;;;1.20;;
20004;SDS011;69160;45.498;-73.582;2023-05-10T01:50:04;2.67;;;1.20;;
20004;SDS011;69160;45.498;-73.582;2023-05-10T01:52:41;2.70;;;1.40;;
20004;SDS011;69160;45.498;-73.582;2023-05-10T01:55:17;7.77;;;1.40;;
20004;SDS011;69160;45.498;-73.582;2023-05-10T01:57:46;5.57;;;1.50;;
20004;SDS011;69160;45.498;-73.582;2023-05-10T02:00:16;5.80;;;1.10;;
20004;SDS011;69160;45.498;-73.582;2023-05-10T02:02:45;6.43;;;2.30;;
20004;SDS011;69160;45.498;-73.582;2023-05-10T02:05:14;6.10;;;1.60;;
20004;SDS011;69160;45.498;-73.582;2023-05-10T02:07:41;3.60;;;1.53;;
20004;SDS011;69160;45.498;-73.582;2023-05-10T02:10:09;10.27;;;1.90;;
20004;SDS011;69160;45.498;-73.582;2023-05-10T02:12:36;3.00;;;1.20;;
20004;SDS011;69160;45.498;-73.582;2023-05-10T02:15:06;2.00;;;1.40;;
20004;SDS011;69160;45.498;-73.582;2023-05-10T02:17:34;3.80;;;1.60;;
20004;SDS011;69160;45.498;-73.582;2023-05-10T02:20:02;8.00;;;1.83;;
20004;SDS011;69160;45.498;-73.582;2023-05-10T02:22:31;6.60;;;2.03;;
20004;SDS011;69160;45.498;-73.582;2023-05-10T02:24:59;9.10;;;1.73;;
20004;SDS011;69160;45.498;-73.582;2023-05-10T02:27:27;6.30;;;1.73;;
20004;SDS011;69160;45.498;-73.582;2023-05-10T02:29:54;7.20;;;2.30;;
20004;SDS011;69160;45.498;-73.582;2023-05-10T02:32:22;6.80;;;2.03;;
20004;SDS011;69160;45.498;-73.582;2023-05-10T02:34:51;3.83;;;2.20;;
20004;SDS011;69160;45.498;-73.582;2023-05-10T02:37:19;5.93;;;2.23;;
20004;SDS011;69160;45.498;-73.582;2023-05-10T02:39:49;4.53;;;2.20;;
20004;SDS011;69160;45.498;-73.582;2023-05-10T02:42:18;7.77;;;2.50;;
20004;SDS011;69160;45.498;-73.582;2023-05-10T02:44:48;3.57;;;2.20;;
20004;SDS011;69160;45.498;-73.582;2023-05-10T02:47:16;9.03;;;2.17;;
20004;SDS011;69160;45.498;-73.582;2023-05-10T02:49:43;4.73;;;2.20;;
20004;SDS011;69160;45.498;-73.582;2023-05-10T02:52:09;7.00;;;2.40;;
20004;SDS011;69160;45.498;-73.582;2023-05-10T02:54:41;5.83;;;2.40;;
20004;SDS011;69160;45.498;-73.582;2023-05-10T02:57:11;4.97;;;1.90;;
20004;SDS011;69160;45.498;-73.582;2023-05-10T02:59:44;6.53;;;2.40;;
20004;SDS011;69160;45.498;-73.582;2023-05-10T03:02:14;12.40;;;2.23;;
20004;SDS011;69160;45.498;-73.582;2023-05-10T03:04:40;15.43;;;2.20;;
20004;SDS011;69160;45.498;-73.582;2023-05-10T03:07:06;4.30;;;1.70;;
20004;SDS011;69160;45.498;-73.582;2023-05-10T03:09:33;9.40;;;2.10;;
20004;SDS011;69160;45.498;-73.582;2023-05-10T03:20:09;3.73;;;1.90;;
20004;SDS011;69160;45.498;-73.582;2023-05-10T03:22:39;9.57;;;1.90;;
20004;SDS011;69160;45.498;-73.582;2023-05-10T03:25:11;6.40;;;1.97;;
20004;SDS011;69160;45.498;-73.582;2023-05-10T03:27:39;5.53;;;2.07;;
20004;SDS011;69160;45.498;-73.582;2023-05-10T03:30:08;5.13;;;2.03;;
20004;SDS011;69160;45.498;-73.582;2023-05-10T03:32:37;7.00;;;2.10;;
20004;SDS011;69160;45.498;-73.582;2023-05-10T03:35:10;11.37;;;2.20;;
20004;SDS011;69160;45.498;-73.582;2023-05-10T03:37:38;7.60;;;1.80;;
20004;SDS011;69160;45.498;-73.582;2023-05-10T03:40:04;12.27;;;1.70;;
20004;SDS011;69160;45.498;-73.582;2023-05-10T03:42:31;6.07;;;1.93;;
20004;SDS011;69160;45.498;-73.582;2023-05-10T03:44:57;11.53;;;2.07;;
20004;SDS011;69160;45.498;-73.582;2023-05-10T03:47:23;5.47;;;2.13;;
20004;SDS011;69160;45.498;-73.582;2023-05-10T03:49:50;7.97;;;1.90;;
20004;SDS011;69160;45.498;-73.582;2023-05-10T03:52:16;12.70;;;2.23;;
20004;SDS011;69160;45.498;-73.582;2023-05-10T03:54:42;8.17;;;2.20;;
20004;SDS011;69160;45.498;-73.582;2023-05-10T03:57:09;5.33;;;1.80;;
20004;SDS011;69160;45.498;-73.582;2023-05-10T03:59:35;7.00;;;2.10;;
20004;SDS011;69160;45.498;-73.582;2023-05-10T04:02:01;7.57;;;1.97;;
20004;SDS011;69160;45.498;-73.582;2023-05-10T04:04:27;5.60;;;1.93;;
20004;SDS011;69160;45.498;-73.582;2023-05-10T04:06:53;8.77;;;1.83;;
20004;SDS011;69160;45.498;-73.582;2023-05-10T04:09:20;17.43;;;3.10;;
20004;SDS011;69160;45.498;-73.582;2023-05-10T04:11:46;8.20;;;1.90;;
20004;SDS011;69160;45.498;-73.582;2023-05-10T04:14:12;5.43;;;1.90;;
20004;SDS011;69160;45.498;-73.582;2023-05-10T04:16:38;2.37;;;1.50;;
20004;SDS011;69160;45.498;-73.582;2023-05-10T04:19:04;6.53;;;1.70;;
20004;SDS011;69160;45.498;-73.582;2023-05-10T04:21:31;6.33;;;1.53;;
20004;SDS011;69160;45.498;-73.582;2023-05-10T04:23:57;7.33;;;1.70;;
20004;SDS011;69160;45.498;-73.582;2023-05-10T04:26:23;2.53;;;1.60;;
20004;SDS011;69160;45.498;-73.582;2023-05-10T04:28:50;8.93;;;1.90;;
20004;SDS011;69160;45.498;-73.582;2023-05-10T04:31:17;3.90;;;1.37;;
20004;SDS011;69160;45.498;-73.582;2023-05-10T04:33:43;3.50;;;1.50;;
20004;SDS011;69160;45.498;-73.582;2023-05-10T04:36:09;2.60;;;1.60;;
20004;SDS011;69160;45.498;-73.582;2023-05-10T04:38:35;2.03;;;1.20;;
20004;SDS011;69160;45.498;-73.582;2023-05-10T04:41:05;6.13;;;1.83;;
20004;SDS011;69160;45.498;-73.582;2023-05-10T04:43:33;2.93;;;1.67;;
20004;SDS011;69160;45.498;-73.582;2023-05-10T04:45:59;6.03;;;1.90;;
20004;SDS011;69160;45.498;-73.582;2023-05-10T04:48:25;5.77;;;1.40;;
20004;SDS011;69160;45.498;-73.582;2023-05-10T04:50:52;7.30;;;1.67;;
20004;SDS011;69160;45.498;-73.582;2023-05-10T04:53:18;6.20;;;1.60;;
20004;SDS011;69160;45.498;-73.582;2023-05-10T04:55:44;4.00;;;1.57;;
20004;SDS011;69160;45.498;-73.582;2023-05-10T04:58:11;4.53;;;1.50;;
20004;SDS011;69160;45.498;-73.582;2023-05-10T05:00:37;6.73;;;1.70;;
20004;SDS011;69160;45.498;-73.582;2023-05-10T05:03:03;5.27;;;2.00;;
20004;SDS011;69160;45.498;-73.582;2023-05-10T05:05:30;7.87;;;1.87;;
20004;SDS011;69160;45.498;-73.582;2023-05-10T05:07:56;4.40;;;1.43;;
20004;SDS011;69160;45.498;-73.582;2023-05-10T05:10:22;2.70;;;1.30;;
20004;SDS011;69160;45.498;-73.582;2023-05-10T05:12:48;2.33;;;1.60;;
20004;SDS011;69160;45.498;-73.582;2023-05-10T05:15:14;4.83;;;1.93;;
20004;SDS011;69160;45.498;-73.582;2023-05-10T05:17:42;2.97;;;1.53;;
20004;SDS011;69160;45.498;-73.582;2023-05-10T05:20:09;5.57;;;1.53;;
20004;SDS011;69160;45.498;-73.582;2023-05-10T05:22:36;5.43;;;1.67;;
20004;SDS011;69160;45.498;-73.582;2023-05-10T05:25:02;5.47;;;1.50;;
20004;SDS011;69160;45.498;-73.582;2023-05-10T05:27:29;7.53;;;1.80;;
20004;SDS011;69160;45.498;-73.582;2023-05-10T05:29:56;2.03;;;1.27;;
20004;SDS011;69160;45.498;-73.582;2023-05-10T05:32:22;10.43;;;1.80;;
20004;SDS011;69160;45.498;-73.582;2023-05-10T05:34:50;11.07;;;1.90;;
20004;SDS011;69160;45.498;-73.582;2023-05-10T05:37:17;8.97;;;1.70;;
20004;SDS011;69160;45.498;-73.582;2023-05-10T05:39:45;10.20;;;1.87;;
20004;SDS011;69160;45.498;-73.582;2023-05-10T05:42:11;6.90;;;2.00;;
20004;SDS011;69160;45.498;-73.582;2023-05-10T05:44:38;6.90;;;2.13;;
20004;SDS011;69160;45.498;-73.582;2023-05-10T05:47:05;6.20;;;1.90;;
20004;SDS011;69160;45.498;-73.582;2023-05-10T05:49:32;7.73;;;1.97;;
20004;SDS011;69160;45.498;-73.582;2023-05-10T05:51:58;4.80;;;1.90;;
20004;SDS011;69160;45.498;-73.582;2023-05-10T05:54:28;4.80;;;1.33;;
20004;SDS011;69160;45.498;-73.582;2023-05-10T05:56:55;4.30;;;1.37;;
20004;SDS011;69160;45.498;-73.582;2023-05-10T05:59:22;4.83;;;1.60;;
20004;SDS011;69160;45.498;-73.582;2023-05-10T06:01:49;5.70;;;1.63;;
20004;SDS011;69160;45.498;-73.582;2023-05-10T06:04:15;10.80;;;1.67;;
20004;SDS011;69160;45.498;-73.582;2023-05-10T06:06:41;3.67;;;1.60;;
20004;SDS011;69160;45.498;-73.582;2023-05-10T06:09:08;4.70;;;1.80;;
20004;SDS011;69160;45.498;-73.582;2023-05-10T06:11:34;3.20;;;1.50;;
20004;SDS011;69160;45.498;-73.582;2023-05-10T06:14:01;5.33;;;1.40;;
20004;SDS011;69160;45.498;-73.582;2023-05-10T06:16:29;3.60;;;1.77;;
20004;SDS011;69160;45.498;-73.582;2023-05-10T06:18:56;4.50;;;1.73;;
20004;SDS011;69160;45.498;-73.582;2023-05-10T06:21:22;7.57;;;1.67;;
20004;SDS011;69160;45.498;-73.582;2023-05-10T06:23:49;3.80;;;1.63;;
20004;SDS011;69160;45.498;-73.582;2023-05-10T06:26:15;4.93;;;1.63;;
20004;SDS011;69160;45.498;-73.582;2023-05-10T06:28:41;3.20;;;1.43;;
20004;SDS011;69160;45.498;-73.582;2023-05-10T06:31:07;2.33;;;1.47;;
20004;SDS011;69160;45.498;-73.582;2023-05-10T06:33:33;3.40;;;1.47;;
20004;SDS011;69160;45.498;-73.582;2023-05-10T06:36:00;8.10;;;1.43;;
20004;SDS011;69160;45.498;-73.582;2023-05-10T06:38:27;4.40;;;1.30;;
20004;SDS011;69160;45.498;-73.582;2023-05-10T06:40:53;3.40;;;1.50;;
20004;SDS011;69160;45.498;-73.582;2023-05-10T06:43:19;1.73;;;1.23;;
20004;SDS011;69160;45.498;-73.582;2023-05-10T06:45:45;5.73;;;1.70;;
20004;SDS011;69160;45.498;-73.582;2023-05-10T06:48:12;9.20;;;1.70;;
20004;SDS011;69160;45.498;-73.582;2023-05-10T06:50:38;5.53;;;1.60;;
20004;SDS011;69160;45.498;-73.582;2023-05-10T06:53:05;4.30;;;1.90;;
20004;SDS011;69160;45.498;-73.582;2023-05-10T06:55:31;8.53;;;1.80;;
20004;SDS011;69160;45.498;-73.582;2023-05-10T06:57:57;4.47;;;2.00;;
20004;SDS011;69160;45.498;-73.582;2023-05-10T07:00:23;5.53;;;1.90;;
20004;SDS011;69160;45.498;-73.582;2023-05-10T07:02:49;5.10;;;1.37;;
20004;SDS011;69160;45.498;-73.582;2023-05-10T07:05:16;6.13;;;1.60;;
20004;SDS011;69160;45.498;-73.582;2023-05-10T07:07:42;3.03;;;1.60;;
20004;SDS011;69160;45.498;-73.582;2023-05-10T07:10:08;3.00;;;1.47;;
20004;SDS011;69160;45.498;-73.582;2023-05-10T07:12:35;5.83;;;2.00;;
20004;SDS011;69160;45.498;-73.582;2023-05-10T07:15:01;6.27;;;1.50;;
20004;SDS011;69160;45.498;-73.582;2023-05-10T07:17:27;6.03;;;1.50;;
20004;SDS011;69160;45.498;-73.582;2023-05-10T07:19:53;2.80;;;1.07;;
20004;SDS011;69160;45.498;-73.582;2023-05-10T07:22:19;2.90;;;1.67;;
20004;SDS011;69160;45.498;-73.582;2023-05-10T07:24:45;4.07;;;1.90;;
20004;SDS011;69160;45.498;-73.582;2023-05-10T07:27:12;4.37;;;1.70;;
20004;SDS011;69160;45.498;-73.582;2023-05-10T07:29:38;4.17;;;1.50;;
20004;SDS011;69160;45.498;-73.582;2023-05-10T07:32:04;6.90;;;2.17;;
20004;SDS011;69160;45.498;-73.582;2023-05-10T07:34:31;4.40;;;1.97;;
20004;SDS011;69160;45.498;-73.582;2023-05-10T07:37:00;6.57;;;2.00;;
20004;SDS011;69160;45.498;-73.582;2023-05-10T07:39:27;5.70;;;1.73;;
20004;SDS011;69160;45.498;-73.582;2023-05-10T07:41:53;4.17;;;2.00;;
20004;SDS011;69160;45.498;-73.582;2023-05-10T07:44:20;7.50;;;1.53;;
20004;SDS011;69160;45.498;-73.582;2023-05-10T07:46:46;4.30;;;1.60;;
20004;SDS011;69160;45.498;-73.582;2023-05-10T07:49:13;2.07;;;1.40;;
20004;SDS011;69160;45.498;-73.582;2023-05-10T07:51:39;3.63;;;1.87;;
20004;SDS011;69160;45.498;-73.582;2023-05-10T07:54:06;7.87;;;1.73;;
20004;SDS011;69160;45.498;-73.582;2023-05-10T07:56:32;2.00;;;1.50;;
20004;SDS011;69160;45.498;-73.582;2023-05-10T07:58:59;3.90;;;1.57;;
20004;SDS011;69160;45.498;-73.582;2023-05-10T08:01:29;4.10;;;1.80;;
20004;SDS011;69160;45.498;-73.582;2023-05-10T08:03:57;4.57;;;1.80;;
20004;SDS011;69160;45.498;-73.582;2023-05-10T08:06:24;3.50;;;1.50;;
20004;SDS011;69160;45.498;-73.582;2023-05-10T08:08:52;1.33;;;1.10;;
20004;SDS011;69160;45.498;-73.582;2023-05-10T08:11:22;2.87;;;1.60;;
20004;SDS011;69160;45.498;-73.582;2023-05-10T08:13:49;6.10;;;1.83;;
20004;SDS011;69160;45.498;-73.582;2023-05-10T08:16:16;4.07;;;1.87;;
20004;SDS011;69160;45.498;-73.582;2023-05-10T08:18:43;4.03;;;1.90;;
20004;SDS011;69160;45.498;-73.582;2023-05-10T08:21:13;5.77;;;2.30;;
20004;SDS011;69160;45.498;-73.582;2023-05-10T08:23:39;7.10;;;1.70;;
20004;SDS011;69160;45.498;-73.582;2023-05-10T08:26:06;5.30;;;1.77;;
20004;SDS011;69160;45.498;-73.582;2023-05-10T08:28:32;3.80;;;1.50;;
20004;SDS011;69160;45.498;-73.582;2023-05-10T08:30:58;2.50;;;1.60;;
20004;SDS011;69160;45.498;-73.582;2023-05-10T08:33:25;2.30;;;1.57;;
20004;SDS011;69160;45.498;-73.582;2023-05-10T08:35:51;2.67;;;1.70;;
20004;SDS011;69160;45.498;-73.582;2023-05-10T08:38:17;2.50;;;1.40;;
20004;SDS011;69160;45.498;-73.582;2023-05-10T08:40:44;3.63;;;1.87;;
20004;SDS011;69160;45.498;-73.582;2023-05-10T08:43:11;3.73;;;1.50;;
20004;SDS011;69160;45.498;-73.582;2023-05-10T08:45:41;3.93;;;1.60;;
20004;SDS011;69160;45.498;-73.582;2023-05-10T08:48:09;3.03;;;1.73;;
20004;SDS011;69160;45.498;-73.582;2023-05-10T08:50:36;4.63;;;1.57;;
20004;SDS011;69160;45.498;-73.582;2023-05-10T08:53:13;5.10;;;2.07;;
20004;SDS011;69160;45.498;-73.582;2023-05-10T08:55:41;3.20;;;1.93;;
20004;SDS011;69160;45.498;-73.582;2023-05-10T08:58:08;2.60;;;1.63;;
20004;SDS011;69160;45.498;-73.582;2023-05-10T09:00:35;4.00;;;1.30;;
20004;SDS011;69160;45.498;-73.582;2023-05-10T09:03:04;3.30;;;1.70;;
20004;SDS011;69160;45.498;-73.582;2023-05-10T09:05:31;1.90;;;1.40;;
20004;SDS011;69160;45.498;-73.582;2023-05-10T09:07:57;5.43;;;1.80;;
20004;SDS011;69160;45.498;-73.582;2023-05-10T09:10:27;6.83;;;1.63;;
20004;SDS011;69160;45.498;-73.582;2023-05-10T09:12:56;3.87;;;1.60;;
20004;SDS011;69160;45.498;-73.582;2023-05-10T09:15:23;1.90;;;1.50;;
20004;SDS011;69160;45.498;-73.582;2023-05-10T09:17:49;3.20;;;1.60;;
20004;SDS011;69160;45.498;-73.582;2023-05-10T09:20:15;3.03;;;1.53;;
20004;SDS011;69160;45.498;-73.582;2023-05-10T09:22:45;4.30;;;1.50;;
20004;SDS011;69160;45.498;-73.582;2023-05-10T09:25:13;4.10;;;1.67;;
20004;SDS011;69160;45.498;-73.582;2023-05-10T09:27:43;3.90;;;1.43;;
20004;SDS011;69160;45.498;-73.582;2023-05-10T09:30:10;2.13;;;1.70;;
20004;SDS011;69160;45.498;-73.582;2023-05-10T09:32:57;2.67;;;1.60;;
20004;SDS011;69160;45.498;-73.582;2023-05-10T09:35:25;5.60;;;1.63;;
20004;SDS011;69160;45.498;-73.582;2023-05-10T09:37:54;3.00;;;1.70;;
20004;SDS011;69160;45.498;-73.582;2023-05-10T09:40:22;1.93;;;1.30;;
20004;SDS011;69160;45.498;-73.582;2023-05-10T09:42:53;2.27;;;1.73;;
20004;SDS011;69160;45.498;-73.582;2023-05-10T09:45:25;3.97;;;1.57;;
20004;SDS011;69160;45.498;-73.582;2023-05-10T09:47:52;5.50;;;1.70;;
20004;SDS011;69160;45.498;-73.582;2023-05-10T09:50:19;5.17;;;1.87;;
20004;SDS011;69160;45.498;-73.582;2023-05-10T09:55:14;2.57;;;1.50;;
20004;SDS011;69160;45.498;-73.582;2023-05-10T09:57:40;3.40;;;1.57;;
20004;SDS011;69160;45.498;-73.582;2023-05-10T10:00:07;4.67;;;2.20;;
20004;SDS011;69160;45.498;-73.582;2023-05-10T10:02:35;1.90;;;1.50;;
20004;SDS011;69160;45.498;-73.582;2023-05-10T10:05:01;2.70;;;1.83;;
20004;SDS011;69160;45.498;-73.582;2023-05-10T10:07:28;6.50;;;2.27;;
20004;SDS011;69160;45.498;-73.582;2023-05-10T10:09:55;3.80;;;2.00;;
20004;SDS011;69160;45.498;-73.582;2023-05-10T10:12:21;3.73;;;1.80;;
20004;SDS011;69160;45.498;-73.582;2023-05-10T10:14:47;5.50;;;2.30;;
20004;SDS011;69160;45.498;-73.582;2023-05-10T10:17:15;8.73;;;1.80;;
20004;SDS011;69160;45.498;-73.582;2023-05-10T10:19:42;4.27;;;2.00;;
20004;SDS011;69160;45.498;-73.582;2023-05-10T10:22:09;3.10;;;1.50;;
20004;SDS011;69160;45.498;-73.582;2023-05-10T10:24:38;3.70;;;1.80;;
20004;SDS011;69160;45.498;-73.582;2023-05-10T10:27:11;3.13;;;1.67;;
20004;SDS011;69160;45.498;-73.582;2023-05-10T10:29:52;3.60;;;1.50;;
20004;SDS011;69160;45.498;-73.582;2023-05-10T10:32:53;4.90;;;1.53;;
20004;SDS011;69160;45.498;-73.582;2023-05-10T10:35:40;5.70;;;1.77;;
20004;SDS011;69160;45.498;-73.582;2023-05-10T10:38:07;6.53;;;1.90;;
20004;SDS011;69160;45.498;-73.582;2023-05-10T10:40:34;2.70;;;1.73;;
20004;SDS011;69160;45.498;-73.582;2023-05-10T10:46:14;4.60;;;1.53;;
20004;SDS011;69160;45.498;-73.582;2023-05-10T10:48:49;7.00;;;2.00;;
20004;SDS011;69160;45.498;-73.582;2023-05-10T10:51:36;9.70;;;2.30;;
20004;SDS011;69160;45.498;-73.582;2023-05-10T10:54:09;4.07;;;1.47;;
20004;SDS011;69160;45.498;-73.582;2023-05-10T10:56:36;6.43;;;2.13;;
20004;SDS011;69160;45.498;-73.582;2023-05-10T10:59:03;11.60;;;2.07;;
20004;SDS011;69160;45.498;-73.582;2023-05-10T11:01:32;4.37;;;1.97;;
20004;SDS011;69160;45.498;-73.582;2023-05-10T11:06:31;3.40;;;1.63;;
20004;SDS011;69160;45.498;-73.582;2023-05-10T11:09:08;7.23;;;1.90;;
20004;SDS011;69160;45.498;-73.582;2023-05-10T11:11:37;7.00;;;1.43;;
20004;SDS011;69160;45.498;-73.582;2023-05-10T11:14:18;3.53;;;1.70;;
20004;SDS011;69160;45.498;-73.582;2023-05-10T11:16:47;5.47;;;1.70;;
20004;SDS011;69160;45.498;-73.582;2023-05-10T11:19:14;6.80;;;1.90;;
20004;SDS011;69160;45.498;-73.582;2023-05-10T11:24:29;5.33;;;1.27;;
20004;SDS011;69160;45.498;-73.582;2023-05-10T11:26:55;5.20;;;1.60;;
20004;SDS011;69160;45.498;-73.582;2023-05-10T11:29:22;8.03;;;1.93;;
20004;SDS011;69160;45.498;-73.582;2023-05-10T11:31:51;5.93;;;1.80;;
20004;SDS011;69160;45.498;-73.582;2023-05-10T11:34:27;13.43;;;2.00;;
20004;SDS011;69160;45.498;-73.582;2023-05-10T11:37:01;3.77;;;1.47;;
20004;SDS011;69160;45.498;-73.582;2023-05-10T11:39:27;3.67;;;1.80;;
20004;SDS011;69160;45.498;-73.582;2023-05-10T11:41:55;9.30;;;1.97;;
20004;SDS011;69160;45.498;-73.582;2023-05-10T11:44:22;4.90;;;2.27;;
20004;SDS011;69160;45.498;-73.582;2023-05-10T11:46:48;14.70;;;2.27;;
20004;SDS011;69160;45.498;-73.582;2023-05-10T11:49:15;5.53;;;1.90;;
20004;SDS011;69160;45.498;-73.582;2023-05-10T11:51:41;5.27;;;2.07;;
20004;SDS011;69160;45.498;-73.582;2023-05-10T11:54:10;4.73;;;1.87;;
20004;SDS011;69160;45.498;-73.582;2023-05-10T11:56:37;8.70;;;2.30;;
20004;SDS011;69160;45.498;-73.582;2023-05-10T11:59:05;4.97;;;1.87;;
20004;SDS011;69160;45.498;-73.582;2023-05-10T12:01:31;18.00;;;2.00;;
20004;SDS011;69160;45.498;-73.582;2023-05-10T12:03:58;4.80;;;2.00;;
20004;SDS011;69160;45.498;-73.582;2023-05-10T12:06:26;9.73;;;2.17;;
20004;SDS011;69160;45.498;-73.582;2023-05-10T12:08:54;7.10;;;2.60;;
20004;SDS011;69160;45.498;-73.582;2023-05-10T12:11:20;6.90;;;2.13;;
20004;SDS011;69160;45.498;-73.582;2023-05-10T12:13:50;6.43;;;2.17;;
20004;SDS011;69160;45.498;-73.582;2023-05-10T12:16:20;7.20;;;1.90;;
20004;SDS011;69160;45.498;-73.582;2023-05-10T12:18:50;5.17;;;1.90;;
20004;SDS011;69160;45.498;-73.582;2023-05-10T12:21:18;7.90;;;2.10;;
20004;SDS011;69160;45.498;-73.582;2023-05-10T12:23:49;8.37;;;2.27;;
20004;SDS011;69160;45.498;-73.582;2023-05-10T12:26:17;4.70;;;1.80;;
20004;SDS011;69160;45.498;-73.582;2023-05-10T12:28:43;6.93;;;1.80;;
20004;SDS011;69160;45.498;-73.582;2023-05-10T12:31:09;4.20;;;1.93;;
20004;SDS011;69160;45.498;-73.582;2023-05-10T12:33:39;8.27;;;2.20;;
20004;SDS011;69160;45.498;-73.582;2023-05-10T12:36:11;5.00;;;2.87;;
20004;SDS011;69160;45.498;-73.582;2023-05-10T12:38:39;8.10;;;2.07;;
20004;SDS011;69160;45.498;-73.582;2023-05-10T12:41:09;32.23;;;7.50;;
20004;SDS011;69160;45.498;-73.582;2023-05-10T12:43:37;39.33;;;11.40;;
20004;SDS011;69160;45.498;-73.582;2023-05-10T12:46:07;68.50;;;16.90;;
20004;SDS011;69160;45.498;-73.582;2023-05-10T12:48:38;41.70;;;12.23;;
20004;SDS011;69160;45.498;-73.582;2023-05-10T12:51:05;39.77;;;8.80;;
20004;SDS011;69160;45.498;-73.582;2023-05-10T12:53:34;27.10;;;7.17;;
20004;SDS011;69160;45.498;-73.582;2023-05-10T12:56:01;23.73;;;5.77;;
20004;SDS011;69160;45.498;-73.582;2023-05-10T12:58:27;24.60;;;6.33;;
20004;SDS011;69160;45.498;-73.582;2023-05-10T13:00:54;12.47;;;4.20;;
20004;SDS011;69160;45.498;-73.582;2023-05-10T13:03:21;13.97;;;4.37;;
20004;SDS011;69160;45.498;-73.582;2023-05-10T13:05:48;13.03;;;3.80;;
20004;SDS011;69160;45.498;-73.582;2023-05-10T13:08:14;8.43;;;3.33;;
20004;SDS011;69160;45.498;-73.582;2023-05-10T13:10:40;7.33;;;2.93;;
20004;SDS011;69160;45.498;-73.582;2023-05-10T13:13:06;6.27;;;2.80;;
20004;SDS011;69160;45.498;-73.582;2023-05-10T13:15:33;9.60;;;3.03;;
20004;SDS011;69160;45.498;-73.582;2023-05-10T13:18:00;11.83;;;2.80;;
20004;SDS011;69160;45.498;-73.582;2023-05-10T13:20:26;5.60;;;2.70;;
20004;SDS011;69160;45.498;-73.582;2023-05-10T13:22:52;8.03;;;2.50;;
20004;SDS011;69160;45.498;-73.582;2023-05-10T13:25:18;8.90;;;2.37;;
20004;SDS011;69160;45.498;-73.582;2023-05-10T13:27:45;6.53;;;2.43;;
20004;SDS011;69160;45.498;-73.582;2023-05-10T13:30:11;10.03;;;2.10;;
20004;SDS011;69160;45.498;-73.582;2023-05-10T13:32:37;4.30;;;1.90;;
20004;SDS011;69160;45.498;-73.582;2023-05-10T13:35:04;3.67;;;1.70;;
20004;SDS011;69160;45.498;-73.582;2023-05-10T13:37:30;8.40;;;2.67;;
20004;SDS011;69160;45.498;-73.582;2023-05-10T13:40:00;6.63;;;1.70;;
20004;SDS011;69160;45.498;-73.582;2023-05-10T13:42:26;6.87;;;1.93;;
20004;SDS011;69160;45.498;-73.582;2023-05-10T13:44:53;7.17;;;1.73;;
20004;SDS011;69160;45.498;-73.582;2023-05-10T13:47:19;5.17;;;1.67;;
20004;SDS011;69160;45.498;-73.582;2023-05-10T13:49:46;5.70;;;1.73;;
20004;SDS011;69160;45.498;-73.582;2023-05-10T13:52:13;6.10;;;2.27;;
20004;SDS011;69160;45.498;-73.582;2023-05-10T13:54:39;3.80;;;1.73;;
20004;SDS011;69160;45.498;-73.582;2023-05-10T13:57:05;3.63;;;1.50;;
20004;SDS011;69160;45.498;-73.582;2023-05-10T13:59:32;7.63;;;2.00;;
20004;SDS011;69160;45.498;-73.582;2023-05-10T14:01:58;6.27;;;2.00;;
20004;SDS011;69160;45.498;-73.582;2023-05-10T14:04:27;5.40;;;1.80;;
20004;SDS011;69160;45.498;-73.582;2023-05-10T14:06:54;7.00;;;1.63;;
20004;SDS011;69160;45.498;-73.582;2023-05-10T14:09:20;2.70;;;1.80;;
20004;SDS011;69160;45.498;-73.582;2023-05-10T14:11:47;4.80;;;1.50;;
20004;SDS011;69160;45.498;-73.582;2023-05-10T14:14:13;5.87;;;1.80;;
20004;SDS011;69160;45.498;-73.582;2023-05-10T14:16:42;5.23;;;1.70;;
20004;SDS011;69160;45.498;-73.582;2023-05-10T14:19:10;4.13;;;1.57;;
20004;SDS011;69160;45.498;-73.582;2023-05-10T14:21:36;5.30;;;1.90;;
20004;SDS011;69160;45.498;-73.582;2023-05-10T14:24:03;4.13;;;1.87;;
20004;SDS011;69160;45.498;-73.582;2023-05-10T14:26:29;4.73;;;1.40;;
20004;SDS011;69160;45.498;-73.582;2023-05-10T14:28:56;2.63;;;1.67;;
20004;SDS011;69160;45.498;-73.582;2023-05-10T14:31:22;3.85;;;1.65;;
20004;SDS011;69160;45.498;-73.582;2023-05-10T14:33:50;4.83;;;2.00;;
20004;SDS011;69160;45.498;-73.582;2023-05-10T14:36:17;4.17;;;1.70;;
20004;SDS011;69160;45.498;-73.582;2023-05-10T14:38:43;5.43;;;1.90;;
20004;SDS011;69160;45.498;-73.582;2023-05-10T14:41:09;11.67;;;2.10;;
20004;SDS011;69160;45.498;-73.582;2023-05-10T14:43:39;2.80;;;1.50;;
20004;SDS011;69160;45.498;-73.582;2023-05-10T14:46:06;6.40;;;1.80;;
20004;SDS011;69160;45.498;-73.582;2023-05-10T14:48:32;2.60;;;1.50;;
20004;SDS011;69160;45.498;-73.582;2023-05-10T14:50:58;5.97;;;1.50;;
20004;SDS011;69160;45.498;-73.582;2023-05-10T14:53:24;9.40;;;1.90;;
20004;SDS011;69160;45.498;-73.582;2023-05-10T14:55:50;3.03;;;1.50;;
20004;SDS011;69160;45.498;-73.582;2023-05-10T14:58:17;4.57;;;1.50;;
20004;SDS011;69160;45.498;-73.582;2023-05-10T15:00:43;3.43;;;1.60;;